Time;durP1;ratioP1;P1;durP2;ratioP2;P2;SDS_P1;SDS_P2;PMS_P1;PMS_P2;Temp;Humidity;BMP_temperature;BMP_pressure;BME280_temperature;BME280_humidity;BME280_pressure;Samples;Min_cycle;Max_cycle;Signal;HPM_P1;HPM_P2
2023/05/16 00:00:30;;;;;;;42.15;37.65;;;22.40;65.30;;;;;;4728461;55;21015;-34
2023/05/16 00:05:31;;;;;;;45.38;40.55;;;22.50;65.40;;;;;;4757426;55;21501;-35
2023/05/16 00:10:32;;;;;;;41.92;37.42;;;22.40;65.30;;;;;;4734995;55;21111;-36
2023/05/16 00:15:33;;;;;;;43.17;38.58;;;22.40;65.30;;;;;;4741567;55;21080;-37
2023/05/16 00:20:34;;;;;;;45.17;39.08;;;22.50;65.30;;;;;;4791090;55;21649;-35
2023/05/16 00:25:35;;;;;;;41.10;36.70;;;22.50;65.40;;;;;;4734132;55;21099;-38
2023/05/16 00:30:36;;;;;;;40.05;35.83;;;22.40;65.30;;;;;;4717755;55;21516;-38
2023/05/16 00:35:37;;;;;;;42.03;37.63;;;22.50;65.40;;;;;;4738193;55;21064;-37
2023/05/16 00:40:38;;;;;;;41.90;37.30;;;22.40;65.30;;;;;;4732785;55;21605;-39
2023/05/16 00:45:39;;;;;;;42.60;38.03;;;22.40;65.30;;;;;;4874557;55;20991;-37
2023/05/16 00:50:40;;;;;;;39.10;34.97;;;22.40;65.30;;;;;;4725054;55;21020;-37
2023/05/16 00:55:41;;;;;;;38.15;34.03;;;22.50;65.40;;;;;;4785498;55;21083;-34
2023/05/16 01:00:43;;;;;;;40.65;36.22;;;22.40;65.30;;;;;;4750853;55;21083;-39
2023/05/16 01:05:44;;;;;;;37.55;33.50;;;22.40;65.40;;;;;;4794621;55;21008;-34
2023/05/16 01:13:41;;;;;;;38.95;34.70;;;22.40;65.30;;;;;;4746218;55;21079;-35
2023/05/16 01:18:59;;;;;;;39.00;34.78;;;22.50;65.60;;;;;;4739697;55;21529;-35
2023/05/16 01:27:22;;;;;;;37.42;33.25;;;22.40;65.30;;;;;;4778951;55;21067;-36
2023/05/16 01:32:23;;;;;;;37.17;33.30;;;22.40;65.30;;;;;;4732742;55;21538;-35
2023/05/16 01:37:34;;;;;;;37.20;33.33;;;22.40;65.30;;;;;;4714762;59;21391;-37
2023/05/16 01:42:42;;;;;;;36.65;32.72;;;22.40;65.30;;;;;;4740548;55;21920;-37
2023/05/16 01:47:46;;;;;;;36.97;33.20;;;22.40;65.30;;;;;;4777845;55;21035;-35
2023/05/16 01:52:57;;;;;;;36.35;32.50;;;22.40;65.30;;;;;;4758154;55;21529;-35
2023/05/16 01:58:01;;;;;;;34.85;31.15;;;22.50;65.40;;;;;;4725342;55;21111;-38
2023/05/16 02:03:02;;;;;;;35.85;32.05;;;22.40;65.30;;;;;;4774517;55;21064;-31
2023/05/16 02:08:03;;;;;;;35.08;31.27;;;22.40;65.40;;;;;;4720831;55;21031;-34
2023/05/16 02:13:04;;;;;;;35.45;31.65;;;22.40;65.30;;;;;;4720773;55;21086;-34
2023/05/16 02:18:05;;;;;;;37.85;33.92;;;22.40;65.30;;;;;;4771028;55;21126;-34
2023/05/16 02:23:06;;;;;;;35.83;32.03;;;22.50;65.30;;;;;;4737825;55;21011;-36
2023/05/16 02:28:07;;;;;;;36.17;32.30;;;22.40;65.30;;;;;;4729711;55;21007;-35
2023/05/16 02:33:11;;;;;;;32.35;28.85;;;22.40;65.30;;;;;;4749450;55;21471;-34
2023/05/16 02:38:16;;;;;;;33.72;30.15;;;22.40;65.30;;;;;;4714617;59;21032;-35
2023/05/16 02:43:17;;;;;;;34.67;31.05;;;22.40;65.30;;;;;;4793906;55;21463;-35
2023/05/16 02:48:17;;;;;;;33.38;29.87;;;22.40;65.30;;;;;;4714515;59;21083;-37
2023/05/16 02:53:18;;;;;;;34.15;30.58;;;22.40;65.30;;;;;;4715219;59;21482;-34
2023/05/16 02:58:19;;;;;;;34.10;30.58;;;22.40;65.30;;;;;;4718839;55;21031;-35
2023/05/16 03:03:23;;;;;;;32.67;29.20;;;22.40;65.30;;;;;;4763423;55;21505;-35
2023/05/16 03:08:24;;;;;;;33.95;30.42;;;22.40;65.30;;;;;;4813509;55;21142;-35
2023/05/16 03:13:25;;;;;;;32.55;29.02;;;22.40;65.30;;;;;;4722767;55;21518;-35
2023/05/16 03:18:25;;;;;;;32.15;28.83;;;22.40;65.40;;;;;;4721402;55;21110;-36
2023/05/16 03:23:26;;;;;;;31.73;28.38;;;22.40;65.30;;;;;;4800402;55;21111;-30
2023/05/16 03:28:27;;;;;;;31.70;28.50;;;22.40;65.30;;;;;;4782343;55;21016;-37
2023/05/16 03:33:28;;;;;;;31.73;28.45;;;22.40;65.30;;;;;;4804000;55;21534;-35
2023/05/16 03:38:29;;;;;;;30.35;27.17;;;22.40;65.30;;;;;;4714261;56;21063;-36
2023/05/16 03:43:30;;;;;;;31.30;27.90;;;22.40;65.40;;;;;;4786125;55;21486;-32
2023/05/16 03:48:31;;;;;;;31.48;28.27;;;22.40;65.30;;;;;;4714700;56;21105;-36
2023/05/16 03:53:32;;;;;;;30.75;27.65;;;22.40;65.40;;;;;;4735390;55;21554;-35
2023/05/16 03:58:33;;;;;;;29.05;26.05;;;22.40;65.40;;;;;;4714201;59;21020;-34
2023/05/16 04:03:34;;;;;;;28.73;25.70;;;22.40;65.30;;;;;;4786640;55;21051;-35
2023/05/16 04:08:34;;;;;;;28.98;25.98;;;22.40;65.30;;;;;;4735701;55;21561;-34
2023/05/16 04:13:35;;;;;;;26.77;23.90;;;22.40;65.30;;;;;;4726075;55;21043;-35
2023/05/16 04:18:36;;;;;;;28.08;25.17;;;22.40;65.40;;;;;;4798659;55;21044;-36
2023/05/16 04:23:37;;;;;;;30.15;27.00;;;22.30;65.40;;;;;;4770671;55;21055;-36
2023/05/16 04:28:38;;;;;;;28.98;25.92;;;22.30;65.50;;;;;;4714888;59;21481;-35
2023/05/16 04:33:39;;;;;;;27.15;24.35;;;22.40;65.60;;;;;;4723912;55;21011;-38
2023/05/16 04:38:40;;;;;;;27.17;24.40;;;22.40;65.60;;;;;;4804607;55;21569;-35
2023/05/16 04:43:42;;;;;;;26.27;23.50;;;22.40;65.60;;;;;;4715130;59;21473;-34
2023/05/16 04:48:43;;;;;;;25.73;23.02;;;22.40;65.60;;;;;;4936933;55;21019;-35
2023/05/16 04:53:43;;;;;;;25.75;23.05;;;22.40;65.60;;;;;;4813920;55;21095;-35
2023/05/16 04:58:44;;;;;;;27.90;25.00;;;22.30;65.50;;;;;;4788954;55;21099;-36
2023/05/16 05:03:45;;;;;;;26.27;23.58;;;22.40;65.60;;;;;;4788381;55;21466;-38
2023/05/16 05:08:49;;;;;;;25.27;22.67;;;22.40;65.60;;;;;;4959619;55;21028;-34
2023/05/16 05:13:50;;;;;;;25.37;22.85;;;22.30;65.60;;;;;;4734544;55;21111;-35
2023/05/16 05:18:51;;;;;;;25.90;23.20;;;22.30;65.50;;;;;;4823974;55;21075;-33
2023/05/16 05:23:52;;;;;;;26.62;23.83;;;22.40;65.60;;;;;;4726760;55;21703;-39
2023/05/16 05:28:53;;;;;;;24.25;21.75;;;22.40;65.60;;;;;;4773987;55;21447;-34
2023/05/16 05:33:55;;;;;;;26.48;23.75;;;22.30;65.50;;;;;;4732287;55;21274;-36
2023/05/16 05:38:57;;;;;;;25.00;22.37;;;22.40;65.60;;;;;;4722679;55;21544;-35
2023/05/16 05:43:57;;;;;;;23.75;21.37;;;22.30;65.50;;;;;;4782904;55;21061;-34
2023/05/16 05:48:59;;;;;;;26.08;23.30;;;22.40;65.60;;;;;;4714703;59;21084;-34
2023/05/16 05:54:01;;;;;;;24.83;22.30;;;22.40;65.50;;;;;;4789962;55;21023;-34
2023/05/16 05:59:02;;;;;;;24.92;22.30;;;22.40;65.60;;;;;;4756012;55;21099;-35
2023/05/16 06:04:03;;;;;;;24.77;22.20;;;22.40;65.90;;;;;;4827278;55;21436;-36
2023/05/16 06:09:03;;;;;;;23.83;21.15;;;22.40;65.50;;;;;;4716251;55;21062;-43
2023/05/16 06:14:04;;;;;;;25.80;22.98;;;22.40;65.60;;;;;;4732143;55;21511;-36
2023/05/16 06:19:05;;;;;;;25.08;22.48;;;22.40;65.60;;;;;;4713213;59;22459;-35
2023/05/16 06:24:06;;;;;;;25.67;22.83;;;22.40;65.50;;;;;;4730436;55;22002;-34
2023/05/16 06:29:07;;;;;;;26.35;23.12;;;22.30;65.50;;;;;;4779706;55;21147;-35
2023/05/16 06:34:08;;;;;;;25.67;22.73;;;22.30;65.50;;;;;;4726596;55;21083;-36
2023/05/16 06:39:09;;;;;;;26.37;23.52;;;22.30;65.50;;;;;;4806786;55;21635;-35
2023/05/16 06:44:10;;;;;;;25.60;22.02;;;22.40;65.60;;;;;;4791889;55;21674;-34
2023/05/16 06:49:11;;;;;;;26.12;23.42;;;22.30;65.50;;;;;;4747080;55;21023;-35
2023/05/16 06:54:12;;;;;;;27.67;23.02;;;22.30;65.50;;;;;;4726177;55;21048;-35
2023/05/16 06:59:12;;;;;;;28.60;23.48;;;22.30;65.60;;;;;;4725928;55;21043;-38
2023/05/16 07:04:14;;;;;;;30.50;25.75;;;22.30;65.50;;;;;;4738678;55;21482;-38
2023/05/16 07:09:15;;;;;;;31.35;25.02;;;22.30;65.50;;;;;;4742327;55;21502;-36
2023/05/16 07:14:16;;;;;;;28.02;23.90;;;22.30;65.50;;;;;;4786575;55;21016;-36
2023/05/16 07:19:16;;;;;;;35.67;26.05;;;22.40;66.20;;;;;;4732447;55;21580;-33
2023/05/16 07:24:20;;;;;;;33.92;27.87;;;22.50;65.60;;;;;;4713027;59;21023;-36
2023/05/16 07:29:21;;;;;;;37.30;28.08;;;22.50;65.60;;;;;;4730644;55;21102;-31
2023/05/16 07:34:22;;;;;;;32.92;27.15;;;22.40;65.80;;;;;;4727091;55;21099;-32
2023/05/16 07:39:23;;;;;;;32.45;28.42;;;22.40;65.80;;;;;;4717439;55;21087;-37
2023/05/16 07:44:23;;;;;;;37.50;30.20;;;22.40;65.90;;;;;;4722716;55;21195;-35
2023/05/16 07:49:24;;;;;;;37.05;30.77;;;22.40;65.80;;;;;;4720288;55;21971;-36
2023/05/16 07:54:25;;;;;;;36.92;30.25;;;22.40;65.80;;;;;;4713262;55;21004;-36
2023/05/16 07:59:27;;;;;;;37.08;31.20;;;22.40;65.80;;;;;;4730773;55;21079;-38
2023/05/16 08:04:28;;;;;;;33.95;30.25;;;22.40;65.90;;;;;;4724045;55;21047;-36
2023/05/16 08:09:29;;;;;;;36.10;29.77;;;22.40;65.80;;;;;;4729720;55;21388;-34
2023/05/16 08:14:31;;;;;;;38.47;30.40;;;22.40;65.90;;;;;;4744311;55;22278;-38
2023/05/16 08:19:32;;;;;;;38.78;31.35;;;22.40;65.80;;;;;;4743767;55;21625;-37
2023/05/16 08:24:33;;;;;;;38.00;31.42;;;22.40;65.80;;;;;;4714896;55;21019;-37
2023/05/16 08:29:34;;;;;;;36.22;31.30;;;22.40;65.90;;;;;;4713792;56;21094;-37
2023/05/16 08:34:35;;;;;;;37.10;31.40;;;22.40;65.90;;;;;;4738193;55;21098;-38
2023/05/16 08:39:39;;;;;;;40.15;31.92;;;22.40;65.90;;;;;;4754300;55;21602;-35
2023/05/16 08:44:40;;;;;;;37.58;32.25;;;22.40;65.90;;;;;;4713484;59;21036;-35
2023/05/16 08:49:46;;;;;;;37.47;32.35;;;22.40;65.80;;;;;;4715778;55;21101;-36
2023/05/16 08:54:49;;;;;;;38.70;32.45;;;22.40;65.90;;;;;;4714368;55;21091;-37
2023/05/16 08:59:53;;;;;;;38.78;33.38;;;22.40;65.90;;;;;;4814693;55;21092;-36
2023/05/16 09:04:57;;;;;;;38.70;32.50;;;22.40;65.80;;;;;;4778787;55;21485;-37
2023/05/16 09:09:58;;;;;;;37.63;31.55;;;22.40;65.90;;;;;;4713116;59;21055;-39
2023/05/16 09:15:02;;;;;;;38.65;32.50;;;22.40;65.80;;;;;;4728934;55;21467;-34
2023/05/16 09:20:11;;;;;;;37.20;31.55;;;22.40;65.80;;;;;;4720406;55;21636;-37
2023/05/16 09:25:16;;;;;;;39.88;31.95;;;22.40;65.80;;;;;;4741806;55;21093;-39
2023/05/16 09:30:30;;;;;;;43.25;35.70;;;22.40;65.80;;;;;;4773487;55;21019;-36
2023/05/16 09:35:31;;;;;;;39.95;33.90;;;22.50;65.80;;;;;;4713199;59;21119;-35
2023/05/16 09:40:32;;;;;;;41.83;34.97;;;22.60;66.20;;;;;;4761886;55;21174;-36
2023/05/16 09:45:35;;;;;;;42.05;34.60;;;22.60;66.30;;;;;;4787148;55;21683;-33
2023/05/16 09:50:36;;;;;;;44.10;34.83;;;22.70;66.50;;;;;;4775557;55;21573;-34
2023/05/16 09:55:37;;;;;;;45.88;34.50;;;22.70;66.40;;;;;;4715876;55;21023;-35
2023/05/16 10:00:39;;;;;;;47.05;37.33;;;22.70;66.40;;;;;;4731208;55;21121;-31
2023/05/16 10:05:41;;;;;;;44.40;37.50;;;22.80;66.50;;;;;;4723116;55;20999;-32
2023/05/16 10:10:42;;;;;;;42.97;36.67;;;22.80;66.50;;;;;;4714226;59;21023;-36
2023/05/16 10:15:44;;;;;;;45.08;37.72;;;22.70;66.50;;;;;;4712815;59;21043;-34
2023/05/16 10:20:48;;;;;;;42.53;36.35;;;22.70;66.50;;;;;;4853992;55;22039;-32
2023/05/16 10:25:49;;;;;;;41.55;35.20;;;22.70;66.50;;;;;;4806354;55;21498;-45
2023/05/16 10:30:50;;;;;;;45.55;36.75;;;22.80;66.30;;;;;;4767860;55;21007;-34
2023/05/16 10:35:52;;;;;;;55.08;36.63;;;23.00;66.00;;;;;;4715112;55;21027;-35
2023/05/16 10:40:53;;;;;;;49.30;36.95;;;22.90;66.20;;;;;;4766000;55;21011;-34
2023/05/16 10:45:56;;;;;;;47.53;37.17;;;23.00;66.10;;;;;;4712553;59;21047;-33
2023/05/16 10:50:57;;;;;;;48.78;36.15;;;23.00;66.10;;;;;;4743781;55;21003;-33
2023/05/16 10:56:08;;;;;;;45.38;35.42;;;23.00;66.20;;;;;;4730428;55;21533;-37
2023/05/16 11:01:42;;;;;;;48.15;36.95;;;23.00;66.00;;;;;;4754549;55;21016;-34
2023/05/16 11:06:50;;;;;;;46.78;36.35;;;23.00;66.10;;;;;;4727871;55;21115;-34
2023/05/16 11:12:02;;;;;;;45.65;36.05;;;23.00;66.20;;;;;;4713661;59;21104;-36
2023/05/16 11:17:20;;;;;;;45.70;35.88;;;23.10;66.20;;;;;;4714868;55;21537;-37
2023/05/16 11:22:33;;;;;;;45.10;35.55;;;23.10;66.10;;;;;;4757476;55;21197;-36
2023/05/16 11:27:43;;;;;;;49.55;36.28;;;23.10;66.20;;;;;;4728300;55;21588;-42
2023/05/16 11:32:45;;;;;;;47.47;37.55;;;23.10;66.10;;;;;;4757377;55;21079;-38
2023/05/16 11:37:46;;;;;;;49.13;37.10;;;23.20;66.20;;;;;;4711978;59;21059;-35
2023/05/16 11:42:48;;;;;;;48.78;38.58;;;23.20;66.20;;;;;;4717077;55;21951;-34
2023/05/16 11:47:48;;;;;;;52.17;39.90;;;23.20;66.20;;;;;;4732139;55;22201;-37
2023/05/16 11:52:52;;;;;;;51.85;39.70;;;23.20;66.20;;;;;;4758561;55;21044;-35
2023/05/16 11:57:54;;;;;;;50.63;39.28;;;23.30;66.20;;;;;;4781629;55;21589;-38
2023/05/16 12:03:01;;;;;;;55.58;39.60;;;23.30;66.20;;;;;;4709769;59;21047;-38
2023/05/16 12:08:03;;;;;;;49.92;38.78;;;23.30;66.20;;;;;;4772082;55;21570;-32
2023/05/16 12:13:04;;;;;;;54.20;43.03;;;23.20;66.30;;;;;;4764863;55;21798;-35
2023/05/16 12:18:05;;;;;;;55.90;42.35;;;23.30;66.40;;;;;;4714130;55;21159;-34
2023/05/16 12:23:13;;;;;;;55.12;41.85;;;23.30;66.30;;;;;;4771955;55;21039;-37
2023/05/16 12:28:15;;;;;;;51.35;41.37;;;23.30;66.30;;;;;;4712366;59;21055;-35
2023/05/16 12:33:16;;;;;;;51.90;41.72;;;23.30;66.40;;;;;;4712708;59;21530;-36
2023/05/16 12:38:19;;;;;;;52.92;40.90;;;23.30;66.50;;;;;;4728878;55;21550;-35
2023/05/16 12:43:22;;;;;;;59.80;41.72;;;23.30;66.40;;;;;;4715834;55;21095;-36
2023/05/16 12:48:30;;;;;;;53.58;42.20;;;23.30;66.50;;;;;;4717343;55;21027;-37
2023/05/16 12:53:41;;;;;;;56.40;40.90;;;23.30;66.50;;;;;;4740047;55;21146;-34
2023/05/16 12:58:42;;;;;;;52.40;39.78;;;23.40;66.50;;;;;;4712564;55;21096;-35
2023/05/16 13:03:43;;;;;;;53.15;39.97;;;23.40;66.20;;;;;;4766659;55;21465;-40
2023/05/16 13:08:44;;;;;;;52.13;38.95;;;23.40;66.60;;;;;;4719870;55;21677;-38
2023/05/16 13:13:44;;;;;;;47.35;37.15;;;23.20;66.80;;;;;;4752713;55;21066;-38
2023/05/16 13:18:45;;;;;;;45.35;36.92;;;23.10;67.00;;;;;;4732108;55;21058;-36
2023/05/16 13:23:46;;;;;;;46.03;37.45;;;23.10;67.10;;;;;;4756130;55;21119;-36
2023/05/16 13:28:50;;;;;;;46.97;38.53;;;23.00;67.30;;;;;;4747062;55;21035;-37
2023/05/16 13:33:51;;;;;;;45.22;37.35;;;23.00;67.30;;;;;;4717112;55;21265;-38
2023/05/16 13:38:51;;;;;;;45.67;36.50;;;23.00;67.40;;;;;;4746673;55;21043;-37
2023/05/16 13:43:52;;;;;;;46.37;38.17;;;22.90;67.30;;;;;;4719611;55;21018;-38
2023/05/16 13:48:53;;;;;;;43.25;34.58;;;22.90;67.40;;;;;;4748715;55;21132;-41
2023/05/16 13:53:54;;;;;;;45.42;36.30;;;22.90;67.40;;;;;;4710425;59;21102;-42
2023/05/16 13:58:55;;;;;;;45.00;36.00;;;23.00;67.00;;;;;;4711200;59;21046;-32
2023/05/16 14:03:56;;;;;;;41.37;35.35;;;23.10;67.10;;;;;;4717869;55;21055;-39
2023/05/16 14:08:57;;;;;;;43.63;35.58;;;23.10;67.20;;;;;;4718087;55;21497;-35
2023/05/16 14:13:57;;;;;;;43.20;34.20;;;23.10;67.30;;;;;;4738958;55;21027;-36
2023/05/16 14:18:58;;;;;;;44.05;33.70;;;23.10;67.30;;;;;;4713127;59;21115;-39
2023/05/16 14:23:59;;;;;;;45.28;34.80;;;23.10;67.30;;;;;;4734792;55;21007;-38
2023/05/16 14:29:00;;;;;;;42.80;34.17;;;23.00;67.30;;;;;;4803548;55;21023;-38
2023/05/16 14:34:01;;;;;;;42.58;33.28;;;23.00;68.10;;;;;;4838302;55;21529;-42
2023/05/16 14:39:02;;;;;;;41.10;33.10;;;22.90;67.40;;;;;;4793292;55;21569;-37
2023/05/16 14:44:04;;;;;;;40.10;33.45;;;22.90;67.40;;;;;;4807500;55;21474;-37
2023/05/16 14:49:04;;;;;;;40.12;33.03;;;23.00;67.10;;;;;;4766824;55;21514;-38
2023/05/16 14:54:06;;;;;;;44.33;34.53;;;23.00;66.80;;;;;;4771299;55;21007;-39
2023/05/16 14:59:07;;;;;;;41.53;33.88;;;23.00;66.80;;;;;;4714533;59;21565;-43
2023/05/16 15:04:08;;;;;;;38.30;33.88;;;23.00;66.80;;;;;;4714809;59;21031;-38
2023/05/16 15:09:09;;;;;;;42.00;33.88;;;23.00;66.70;;;;;;4714945;59;21830;-38
2023/05/16 15:14:10;;;;;;;40.15;31.95;;;23.00;66.80;;;;;;4715124;59;21031;-44
2023/05/16 15:19:11;;;;;;;41.50;32.45;;;23.00;66.70;;;;;;4743667;55;21051;-39
2023/05/16 15:24:11;;;;;;;39.65;32.45;;;23.00;66.90;;;;;;4732852;55;21209;-39
2023/05/16 15:29:12;;;;;;;38.28;32.90;;;23.00;66.80;;;;;;4729261;55;21012;-43
2023/05/16 15:34:13;;;;;;;36.92;31.58;;;23.00;66.70;;;;;;4842284;55;21103;-42
2023/05/16 15:39:15;;;;;;;37.47;31.55;;;23.00;66.60;;;;;;4780482;55;21505;-40
2023/05/16 15:44:15;;;;;;;36.58;32.13;;;23.00;66.60;;;;;;4714943;59;21497;-37
2023/05/16 15:49:16;;;;;;;37.67;31.92;;;23.00;66.60;;;;;;4857719;55;22083;-38
2023/05/16 15:54:17;;;;;;;37.17;31.67;;;23.00;66.60;;;;;;4771092;55;22479;-38
2023/05/16 15:59:18;;;;;;;41.25;32.55;;;23.00;66.50;;;;;;4909750;55;21024;-38
2023/05/16 16:04:21;;;;;;;36.10;32.20;;;23.00;66.50;;;;;;4714518;59;21497;-37
2023/05/16 16:09:22;;;;;;;37.70;31.20;;;22.90;66.60;;;;;;4738206;55;21558;-41
2023/05/16 16:14:24;;;;;;;33.78;29.37;;;22.90;66.80;;;;;;4820767;55;21019;-38
2023/05/16 16:19:25;;;;;;;37.35;31.37;;;22.80;67.10;;;;;;4761660;55;21127;-40
2023/05/16 16:24:26;;;;;;;34.85;31.10;;;22.80;67.00;;;;;;4801390;55;21473;-37
2023/05/16 16:29:27;;;;;;;36.78;30.80;;;22.80;67.10;;;;;;4766028;55;21196;-40
2023/05/16 16:34:28;;;;;;;36.50;30.25;;;22.80;66.90;;;;;;4720585;55;21585;-39
2023/05/16 16:39:29;;;;;;;36.10;29.98;;;22.80;67.00;;;;;;4758547;55;21099;-38
2023/05/16 16:44:30;;;;;;;34.55;30.52;;;22.80;66.90;;;;;;4742442;55;21616;-40
2023/05/16 16:49:31;;;;;;;36.58;31.12;;;22.80;66.70;;;;;;4714583;59;21011;-40
2023/05/16 16:54:32;;;;;;;37.60;32.20;;;22.90;66.50;;;;;;4714399;59;21482;-39
2023/05/16 16:59:33;;;;;;;34.25;29.80;;;22.90;66.30;;;;;;4771036;55;21019;-37
2023/05/16 17:04:34;;;;;;;36.13;30.40;;;22.90;66.40;;;;;;4721226;55;21023;-38
2023/05/16 17:09:35;;;;;;;35.25;29.98;;;22.90;67.40;;;;;;4714786;59;21020;-40
2023/05/16 17:14:36;;;;;;;34.60;29.42;;;22.80;66.80;;;;;;4716969;55;21146;-38
2023/05/16 17:19:37;;;;;;;33.28;29.67;;;22.80;66.80;;;;;;4728212;55;21123;-39
2023/05/16 17:24:38;;;;;;;36.08;29.77;;;22.80;66.70;;;;;;4714851;56;21489;-36
2023/05/16 17:29:39;;;;;;;33.05;29.17;;;22.90;66.40;;;;;;4773759;55;21545;-38
2023/05/16 17:34:40;;;;;;;33.10;29.48;;;22.90;66.50;;;;;;4790475;55;21090;-38
2023/05/16 17:39:41;;;;;;;32.95;28.55;;;22.90;66.50;;;;;;4714597;59;21462;-43
2023/05/16 17:44:42;;;;;;;31.77;28.25;;;22.80;66.60;;;;;;4733140;55;21466;-38
2023/05/16 17:49:43;;;;;;;34.33;29.55;;;22.90;66.60;;;;;;4738730;55;21027;-42
2023/05/16 17:54:44;;;;;;;32.30;28.30;;;22.80;66.60;;;;;;4855963;55;20997;-41
2023/05/16 17:59:45;;;;;;;33.22;28.70;;;22.90;66.40;;;;;;4713561;59;21191;-39
2023/05/16 18:04:46;;;;;;;32.15;27.80;;;22.80;66.60;;;;;;4714850;59;21932;-43
2023/05/16 18:09:48;;;;;;;31.77;28.27;;;22.90;66.40;;;;;;4714823;59;21672;-36
2023/05/16 18:14:49;;;;;;;29.90;26.73;;;22.80;66.50;;;;;;4722472;55;21565;-36
2023/05/16 18:19:50;;;;;;;30.62;26.35;;;22.80;66.50;;;;;;4746159;55;21601;-40
2023/05/16 18:24:51;;;;;;;31.37;27.77;;;22.80;66.60;;;;;;4716211;55;21027;-41
2023/05/16 18:29:52;;;;;;;31.50;28.10;;;22.80;66.50;;;;;;4714742;59;21486;-40
2023/05/16 18:34:52;;;;;;;31.95;28.50;;;22.90;66.20;;;;;;4714974;59;21043;-40
2023/05/16 18:39:53;;;;;;;30.95;27.40;;;22.90;66.40;;;;;;4714468;56;21641;-39
2023/05/16 18:44:56;;;;;;;31.55;26.85;;;22.80;66.40;;;;;;4735357;55;21530;-37
2023/05/16 18:49:56;;;;;;;29.27;25.30;;;22.80;66.40;;;;;;4715208;55;22408;-39
2023/05/16 18:54:57;;;;;;;31.35;27.52;;;22.80;66.60;;;;;;4765044;55;21056;-37
2023/05/16 18:59:58;;;;;;;31.48;27.77;;;22.80;66.50;;;;;;4728142;55;21031;-38
2023/05/16 19:04:59;;;;;;;32.35;27.23;;;22.90;66.10;;;;;;4714534;59;21040;-39
2023/05/16 19:10:00;;;;;;;30.12;26.70;;;23.00;65.90;;;;;;4715097;59;21541;-40
2023/05/16 19:15:00;;;;;;;29.15;25.98;;;22.90;66.20;;;;;;4714567;56;21015;-40
2023/05/16 19:20:01;;;;;;;31.55;26.27;;;22.80;66.70;;;;;;4740332;55;21663;-41
2023/05/16 19:25:03;;;;;;;28.52;25.02;;;22.70;66.50;;;;;;4715020;59;21532;-40
2023/05/16 19:30:05;;;;;;;29.27;26.08;;;22.70;66.40;;;;;;4763887;55;21031;-36
2023/05/16 19:35:07;;;;;;;30.65;26.35;;;22.70;66.50;;;;;;4715032;59;21015;-36
2023/05/16 19:40:08;;;;;;;29.23;25.42;;;22.70;66.50;;;;;;4795912;55;21059;-36
2023/05/16 19:45:10;;;;;;;28.27;24.65;;;22.80;66.50;;;;;;4714850;59;21024;-42
2023/05/16 19:50:11;;;;;;;30.08;26.33;;;22.80;66.30;;;;;;4802117;55;20996;-39
2023/05/16 19:55:12;;;;;;;27.62;24.63;;;22.70;66.50;;;;;;4734492;55;21494;-38
2023/05/16 20:00:14;;;;;;;28.02;25.00;;;22.80;66.20;;;;;;4896304;55;21055;-40
2023/05/16 20:05:18;;;;;;;26.77;23.67;;;22.80;66.10;;;;;;4782670;55;20996;-41
2023/05/16 20:10:21;;;;;;;26.90;24.10;;;22.80;66.30;;;;;;4715330;55;21613;-36
2023/05/16 20:15:22;;;;;;;27.85;24.80;;;22.70;66.30;;;;;;4715044;59;21111;-39
2023/05/16 20:20:23;;;;;;;27.45;24.35;;;22.70;66.40;;;;;;4713794;59;21107;-39
2023/05/16 20:25:23;;;;;;;27.95;24.08;;;22.70;66.40;;;;;;4765553;55;21004;-37
2023/05/16 20:30:24;;;;;;;28.25;24.00;;;22.70;66.40;;;;;;4715088;59;21482;-42
2023/05/16 20:35:25;;;;;;;26.48;23.60;;;22.70;66.40;;;;;;4720031;55;21026;-40
2023/05/16 20:40:26;;;;;;;24.85;21.75;;;22.70;66.70;;;;;;4725320;55;21035;-38
2023/05/16 20:45:29;;;;;;;27.83;24.08;;;22.70;66.60;;;;;;4734521;55;21469;-36
2023/05/16 20:50:30;;;;;;;27.33;23.33;;;22.60;66.30;;;;;;4776350;55;21643;-41
2023/05/16 20:55:31;;;;;;;28.27;22.83;;;22.70;66.40;;;;;;4805472;55;21091;-44
2023/05/16 21:00:32;;;;;;;27.70;23.77;;;22.70;66.40;;;;;;4730070;55;21063;-38
2023/05/16 21:05:34;;;;;;;26.98;23.08;;;22.60;66.20;;;;;;4772405;55;21088;-39
2023/05/16 21:10:35;;;;;;;27.23;22.83;;;22.60;66.20;;;;;;4880529;55;21534;-40
2023/05/16 21:15:37;;;;;;;25.60;21.65;;;22.60;66.20;;;;;;4715165;59;21019;-36
2023/05/16 21:20:38;;;;;;;24.95;21.85;;;22.60;66.20;;;;;;4714409;59;21715;-38
2023/05/16 21:25:39;;;;;;;29.12;23.52;;;22.60;66.20;;;;;;4720547;55;21003;-39
2023/05/16 21:30:40;;;;;;;24.77;22.13;;;22.60;66.20;;;;;;4715140;59;21566;-36
2023/05/16 21:35:41;;;;;;;25.40;21.30;;;22.60;66.10;;;;;;4742075;55;21082;-38
2023/05/16 21:40:42;;;;;;;25.02;20.35;;;22.60;66.10;;;;;;4726785;55;21889;-40
2023/05/16 21:45:43;;;;;;;26.37;21.90;;;22.70;66.10;;;;;;4714978;59;21043;-39
2023/05/16 21:50:44;;;;;;;25.27;21.80;;;22.60;66.00;;;;;;4738774;55;21067;-38
2023/05/16 21:55:45;;;;;;;27.08;21.85;;;22.70;66.10;;;;;;4720725;55;21454;-42
2023/05/16 22:00:45;;;;;;;24.25;20.45;;;22.60;66.00;;;;;;4740717;55;21637;-41
2023/05/16 22:05:46;;;;;;;23.55;20.65;;;22.60;65.90;;;;;;4742078;55;21015;-37
2023/05/16 22:10:47;;;;;;;23.75;20.27;;;22.60;65.90;;;;;;4715351;59;21507;-38
2023/05/16 22:15:48;;;;;;;25.20;21.17;;;22.60;65.90;;;;;;4715003;59;21453;-40
2023/05/16 22:20:49;;;;;;;23.12;19.50;;;22.60;65.80;;;;;;4713726;59;21042;-40
2023/05/16 22:25:50;;;;;;;24.50;20.90;;;22.60;65.80;;;;;;4719149;55;21568;-40
2023/05/16 22:30:50;;;;;;;23.10;20.05;;;22.60;65.80;;;;;;4855726;55;21079;-40
2023/05/16 22:35:52;;;;;;;24.45;20.25;;;22.60;65.70;;;;;;4714791;59;21109;-40
2023/05/16 22:40:53;;;;;;;22.83;20.05;;;22.60;65.70;;;;;;4805543;55;21063;-42
2023/05/16 22:45:53;;;;;;;23.73;19.85;;;22.60;65.70;;;;;;4809104;55;21004;-36
2023/05/16 22:50:54;;;;;;;21.65;18.90;;;22.60;65.60;;;;;;4714985;59;21038;-39
2023/05/16 22:55:55;;;;;;;25.45;19.23;;;22.60;65.60;;;;;;4739859;55;21438;-37
2023/05/16 23:00:56;;;;;;;21.92;18.98;;;22.60;65.60;;;;;;4793379;55;21027;-40
2023/05/16 23:05:57;;;;;;;23.55;20.08;;;22.60;65.50;;;;;;4733095;55;21529;-38
2023/05/16 23:10:58;;;;;;;20.55;18.35;;;22.60;65.50;;;;;;4714556;59;21343;-38
2023/05/16 23:15:59;;;;;;;22.08;18.23;;;22.60;65.40;;;;;;4755541;55;21530;-38
2023/05/16 23:21:00;;;;;;;21.35;18.33;;;22.60;65.40;;;;;;4714411;59;21067;-39
2023/05/16 23:26:01;;;;;;;19.23;17.12;;;22.60;65.30;;;;;;4755613;55;21076;-38
2023/05/16 23:31:02;;;;;;;21.60;18.10;;;22.60;65.30;;;;;;4715238;59;21084;-37
2023/05/16 23:36:03;;;;;;;20.15;18.05;;;22.60;65.30;;;;;;4772612;55;21008;-40
2023/05/16 23:41:04;;;;;;;19.95;17.25;;;22.60;65.30;;;;;;4725117;55;21076;-38
2023/05/16 23:46:07;;;;;;;21.52;17.95;;;22.60;65.20;;;;;;4732438;55;21073;-38
2023/05/16 23:51:08;;;;;;;20.95;17.58;;;22.60;65.20;;;;;;4714555;55;21537;-39
2023/05/16 23:56:09;;;;;;;19.40;16.33;;;22.60;65.20;;;;;;4714701;59;21087;-40
